createdAt,value
2019-02-28T00:01:52.699Z,83.07
2019-02-28T00:04:21.419Z,84.55
2019-02-28T00:06:50.130Z,91.40
2019-02-28T00:09:18.886Z,89.67
2019-02-28T00:11:47.645Z,84.87
2019-02-28T00:14:16.374Z,89.25
2019-02-28T00:16:45.493Z,99.87
2019-02-28T00:19:14.214Z,89.67
2019-02-28T00:21:42.915Z,99.52
2019-02-28T00:24:11.649Z,94.00
2019-02-28T00:26:46.287Z,100.82
2019-02-28T00:29:10.786Z,103.02
2019-02-28T00:31:39.522Z,97.37
2019-02-28T00:34:08.245Z,97.92
2019-02-28T00:36:36.965Z,104.30
2019-02-28T00:39:06.402Z,97.17
2019-02-28T00:41:35.199Z,111.35
2019-02-28T00:44:04.472Z,102.17
2019-02-28T00:46:33.338Z,90.35
2019-02-28T00:49:03.951Z,96.15
2019-02-28T00:51:32.666Z,113.88
2019-02-28T00:54:01.413Z,104.85
2019-02-28T00:56:30.634Z,97.15
2019-02-28T00:59:00.517Z,103.07
2019-02-28T01:01:30.237Z,107.83
2019-02-28T01:03:59.092Z,100.27
2019-02-28T01:06:28.302Z,95.07
2019-02-28T01:08:57.041Z,103.10
2019-02-28T01:11:25.758Z,111.77
2019-02-28T01:13:54.474Z,106.12
2019-02-28T01:16:23.208Z,107.78
2019-02-28T01:18:51.920Z,102.12
2019-02-28T01:21:23.704Z,101.87
2019-02-28T01:23:55.278Z,109.78
2019-02-28T01:26:23.985Z,110.15
2019-02-28T01:28:52.705Z,103.70
2019-02-28T01:31:21.434Z,106.05
2019-02-28T01:33:50.148Z,110.92
2019-02-28T01:36:18.870Z,111.05
2019-02-28T01:38:47.614Z,110.28
2019-02-28T01:41:16.326Z,109.17
2019-02-28T01:43:45.109Z,110.72
2019-02-28T01:46:14.463Z,114.57
2019-02-28T01:48:44.298Z,122.62
2019-02-28T01:51:13.934Z,122.47
2019-02-28T01:53:42.685Z,125.87
2019-02-28T01:56:11.409Z,121.02
2019-02-28T01:58:40.446Z,128.32
2019-02-28T02:01:09.222Z,144.93
2019-02-28T02:03:40.658Z,119.42
2019-02-28T02:06:08.401Z,126.92
2019-02-28T02:08:37.844Z,120.33
2019-02-28T02:11:07.330Z,130.40
2019-02-28T02:13:36.936Z,124.62
2019-02-28T02:16:06.261Z,131.80
2019-02-28T02:18:34.977Z,118.05
2019-02-28T02:21:03.697Z,115.77
2019-02-28T02:23:32.430Z,121.05
2019-02-28T02:26:01.137Z,120.40
2019-02-28T02:28:29.853Z,131.00
2019-02-28T02:30:58.595Z,123.82
2019-02-28T02:33:27.334Z,132.52
2019-02-28T02:35:56.044Z,139.40
2019-02-28T02:38:24.760Z,137.30
2019-02-28T02:40:59.007Z,132.65
2019-02-28T02:43:23.895Z,137.20
2019-02-28T02:45:52.634Z,130.50
2019-02-28T02:48:21.346Z,139.70
2019-02-28T02:50:50.119Z,140.15
2019-02-28T02:53:19.760Z,149.05
2019-02-28T02:55:48.561Z,153.05
2019-02-28T02:58:17.324Z,150.55
2019-02-28T03:00:50.147Z,160.63
2019-02-28T03:03:17.728Z,165.57
2019-02-28T03:05:46.492Z,186.62
2019-02-28T03:08:15.242Z,194.40
2019-02-28T03:10:43.967Z,164.70
2019-02-28T03:13:12.677Z,163.22
2019-02-28T03:15:41.433Z,175.45
2019-02-28T03:18:10.161Z,180.75
2019-02-28T03:20:41.108Z,183.80
2019-02-28T03:23:09.386Z,183.68
2019-02-28T03:25:38.107Z,175.57
2019-02-28T03:28:06.835Z,185.30
2019-02-28T03:30:35.566Z,198.80
2019-02-28T03:33:04.427Z,185.18
2019-02-28T03:35:43.443Z,188.65
2019-02-28T03:38:10.572Z,197.00
2019-02-28T03:40:39.748Z,199.40
2019-02-28T03:43:06.946Z,177.40
2019-02-28T03:45:35.939Z,172.05
2019-02-28T03:48:04.718Z,152.57
2019-02-28T03:50:33.445Z,154.20
2019-02-28T03:53:02.257Z,186.73
2019-02-28T03:55:30.979Z,161.07
2019-02-28T03:58:04.373Z,161.07
2019-02-28T04:00:33.876Z,141.28
2019-02-28T04:03:00.813Z,140.15
2019-02-28T04:05:29.610Z,141.97
2019-02-28T04:07:58.424Z,158.57
2019-02-28T04:10:27.213Z,158.10
2019-02-28T04:12:58.366Z,155.65
2019-02-28T04:15:27.122Z,171.93
2019-02-28T04:17:56.289Z,141.80
2019-02-28T04:20:25.021Z,149.25
2019-02-28T04:22:58.827Z,171.00
2019-02-28T04:25:24.558Z,176.12
2019-02-28T04:27:53.923Z,169.35
2019-02-28T04:30:22.682Z,152.00
2019-02-28T04:32:51.447Z,167.93
2019-02-28T04:35:23.918Z,169.15
2019-02-28T04:37:50.627Z,195.12
2019-02-28T04:40:19.338Z,173.15
2019-02-28T04:42:48.053Z,181.97
2019-02-28T04:45:16.790Z,163.75
2019-02-28T04:47:45.507Z,177.27
2019-02-28T04:50:14.216Z,194.75
2019-02-28T04:52:47.934Z,170.62
2019-02-28T04:55:13.402Z,177.35
2019-02-28T04:57:42.114Z,193.15
2019-02-28T05:00:11.324Z,178.62
2019-02-28T05:02:40.076Z,181.07
2019-02-28T05:05:12.160Z,153.15
2019-02-28T05:07:39.393Z,167.95
2019-02-28T05:10:08.326Z,171.55
2019-02-28T05:12:39.961Z,171.05
2019-02-28T05:15:07.554Z,160.78
2019-02-28T05:17:36.265Z,141.15
2019-02-28T05:20:07.408Z,148.30
2019-02-28T05:22:35.615Z,167.65
2019-02-28T05:25:04.366Z,178.02
2019-02-28T05:27:35.362Z,179.40
2019-02-28T05:30:03.645Z,201.47
2019-02-28T05:32:35.633Z,209.70
2019-02-28T05:35:02.793Z,216.57
2019-02-28T05:37:31.575Z,204.05
2019-02-28T05:40:05.234Z,189.52
2019-02-28T05:42:30.706Z,180.10
2019-02-28T05:44:59.426Z,177.27
2019-02-28T05:47:29.406Z,189.07
2019-02-28T05:49:58.582Z,202.28
2019-02-28T05:52:27.311Z,181.85
2019-02-28T05:55:15.326Z,202.20
2019-02-28T05:57:44.891Z,208.97
2019-02-28T06:00:15.173Z,212.82
2019-02-28T06:02:43.950Z,213.65
2019-02-28T06:05:12.817Z,228.60
2019-02-28T06:07:41.792Z,224.37
2019-02-28T06:10:10.527Z,208.53
2019-02-28T06:12:40.566Z,213.25
2019-02-28T06:15:09.946Z,229.07
2019-02-28T06:17:38.742Z,217.30
2019-02-28T06:20:08.226Z,235.68
2019-02-28T06:22:37.002Z,225.65
2019-02-28T06:25:05.742Z,222.42
2019-02-28T06:27:41.054Z,229.82
2019-02-28T06:30:08.659Z,243.10
2019-02-28T06:32:35.789Z,231.35
2019-02-28T06:35:05.853Z,213.25
2019-02-28T06:37:35.396Z,214.38
2019-02-28T06:40:06.138Z,229.68
2019-02-28T06:42:34.889Z,211.05
2019-02-28T06:45:03.773Z,226.75
2019-02-28T06:47:32.594Z,241.68
2019-02-28T06:50:01.346Z,246.75
2019-02-28T06:52:30.046Z,237.27
2019-02-28T06:54:58.795Z,248.00
2019-02-28T06:57:28.462Z,255.83
2019-02-28T06:59:57.215Z,254.18
2019-02-28T07:02:28.484Z,264.40
2019-02-28T07:04:56.401Z,276.55
2019-02-28T07:07:25.135Z,291.82
2019-02-28T07:09:53.855Z,277.57
2019-02-28T07:12:22.558Z,285.50
2019-02-28T07:14:51.376Z,277.77
2019-02-28T07:17:20.082Z,277.25
2019-02-28T07:19:48.822Z,280.57
2019-02-28T07:22:19.679Z,275.85
2019-02-28T07:24:48.418Z,261.80
2019-02-28T07:27:17.127Z,267.77
2019-02-28T07:29:45.874Z,273.00
2019-02-28T07:32:16.481Z,263.30
2019-02-28T07:34:45.268Z,275.65
2019-02-28T07:37:18.547Z,265.35
2019-02-28T07:39:44.446Z,260.77
2019-02-28T07:42:15.060Z,265.62
2019-02-28T07:44:43.797Z,239.45
2019-02-28T07:47:16.994Z,264.70
2019-02-28T07:49:42.957Z,268.20
2019-02-28T07:52:11.690Z,268.63
2019-02-28T07:54:59.698Z,303.80
2019-02-28T07:57:28.462Z,303.92
2019-02-28T07:59:57.178Z,288.85
2019-02-28T08:02:27.255Z,287.00
2019-02-28T08:04:56.083Z,302.18
2019-02-28T08:07:24.795Z,291.80
2019-02-28T08:09:53.505Z,280.12
2019-02-28T08:12:22.250Z,291.42
2019-02-28T08:14:51.038Z,271.52
2019-02-28T08:17:19.754Z,272.05
2019-02-28T08:19:48.527Z,268.75
2019-02-28T08:22:23.301Z,263.70
2019-02-28T08:24:47.706Z,261.65
2019-02-28T08:27:16.426Z,262.02
2019-02-28T08:29:46.012Z,235.70
2019-02-28T08:32:14.923Z,237.72
2019-02-28T08:34:43.637Z,239.40
2019-02-28T08:37:12.382Z,245.48
2019-02-28T08:39:42.059Z,230.18
2019-02-28T08:42:10.996Z,245.10
2019-02-28T08:44:39.736Z,253.65
2019-02-28T08:47:08.527Z,230.67
2019-02-28T08:49:42.282Z,235.08
2019-02-28T08:52:07.742Z,244.60
2019-02-28T08:54:36.546Z,228.70
2019-02-28T08:57:05.282Z,235.38
2019-02-28T08:59:34.054Z,236.15
2019-02-28T09:02:02.850Z,236.03
2019-02-28T09:04:40.735Z,224.32
2019-02-28T09:07:02.023Z,217.25
2019-02-28T09:09:31.681Z,205.85
2019-02-28T09:12:01.202Z,206.65
2019-02-28T09:14:29.911Z,220.22
2019-02-28T09:16:58.651Z,221.35
2019-02-28T09:19:27.380Z,202.30
2019-02-28T09:21:56.094Z,210.00
2019-02-28T09:24:25.995Z,199.05
2019-02-28T09:26:54.884Z,202.13
2019-02-28T09:29:23.674Z,188.90
2019-02-28T09:31:52.730Z,187.32
2019-02-28T09:34:21.470Z,189.10
2019-02-28T09:36:55.232Z,184.95
2019-02-28T09:39:20.654Z,198.93
2019-02-28T09:41:49.967Z,181.90
2019-02-28T09:44:18.734Z,193.70
2019-02-28T09:46:50.646Z,181.70
2019-02-28T09:49:17.932Z,186.45
2019-02-28T09:51:46.659Z,176.95
2019-02-28T09:54:15.405Z,194.17
2019-02-28T09:56:44.526Z,182.47
2019-02-28T09:59:14.109Z,176.97
2019-02-28T10:01:42.889Z,166.50
2019-02-28T10:04:11.584Z,166.63
2019-02-28T10:06:40.286Z,173.47
2019-02-28T10:09:09.529Z,162.13
2019-02-28T10:11:40.426Z,163.40
2019-02-28T10:14:08.939Z,144.90
2019-02-28T10:16:37.682Z,133.37
2019-02-28T10:19:10.194Z,130.63
2019-02-28T10:21:39.649Z,126.33
2019-02-28T10:24:08.534Z,121.57
2019-02-28T10:26:37.301Z,115.33
2019-02-28T10:29:07.578Z,111.20
2019-02-28T10:31:38.383Z,112.17
2019-02-28T10:34:07.054Z,107.87
2019-02-28T10:36:35.874Z,105.07
2019-02-28T10:39:08.945Z,98.80
2019-02-28T10:41:36.498Z,97.73
2019-02-28T10:44:05.264Z,93.30
2019-02-28T10:46:35.996Z,91.73
2019-02-28T10:49:04.534Z,85.23
2019-02-28T10:51:52.536Z,84.43
2019-02-28T10:54:21.245Z,78.33
2019-02-28T10:56:49.957Z,75.43
2019-02-28T10:59:21.366Z,74.77
2019-02-28T11:01:49.162Z,69.97
2019-02-28T11:04:17.904Z,71.97
2019-02-28T11:06:46.888Z,76.80
2019-02-28T11:09:21.811Z,89.20
2019-02-28T11:11:50.150Z,89.43
2019-02-28T11:14:18.933Z,105.17
2019-02-28T11:16:47.653Z,103.67
2019-02-28T11:19:18.630Z,111.37
2019-02-28T11:21:46.962Z,109.13
2019-02-28T11:24:15.675Z,110.27
2019-02-28T11:26:44.743Z,124.97
2019-02-28T11:29:16.430Z,132.23
2019-02-28T11:31:45.164Z,135.10
2019-02-28T11:34:15.011Z,140.30
2019-02-28T11:36:44.831Z,148.37
2019-02-28T11:39:20.895Z,143.33
2019-02-28T11:41:52.643Z,140.03
2019-02-28T11:44:20.059Z,136.57
2019-02-28T11:46:48.950Z,131.00
2019-02-28T11:49:17.703Z,130.03
2019-02-28T11:51:49.366Z,130.23
2019-02-28T11:54:16.908Z,133.63
2019-02-28T11:56:45.622Z,130.50
2019-02-28T11:59:14.358Z,137.87
2019-02-28T12:01:47.409Z,136.00
2019-02-28T12:04:13.554Z,135.30
2019-02-28T12:06:42.322Z,132.23
2019-02-28T12:09:11.617Z,129.03
2019-02-28T12:11:40.355Z,125.77
2019-02-28T12:14:09.258Z,111.13
2019-02-28T12:16:38.065Z,110.80
2019-02-28T12:19:06.769Z,95.67
2019-02-28T12:21:37.982Z,91.40
2019-02-28T12:24:05.946Z,95.70
2019-02-28T12:26:34.682Z,85.03
2019-02-28T12:29:03.434Z,89.97
2019-02-28T12:31:35.567Z,81.40
2019-02-28T12:34:02.622Z,79.33
2019-02-28T12:36:31.322Z,79.03
2019-02-28T12:39:02.301Z,79.63
2019-02-28T12:41:30.530Z,71.97
2019-02-28T12:43:59.331Z,71.37
2019-02-28T12:46:28.046Z,64.00
2019-02-28T12:48:56.773Z,62.43
2019-02-28T12:51:25.473Z,58.97
2019-02-28T12:53:56.215Z,63.47
2019-02-28T12:56:24.650Z,55.77
2019-02-28T12:58:53.369Z,47.27
2019-02-28T13:01:22.074Z,54.13
2019-02-28T13:03:54.630Z,47.87
2019-02-28T13:06:23.671Z,39.60
2019-02-28T13:08:53.448Z,42.50
2019-02-28T13:11:24.177Z,39.50
2019-02-28T13:13:52.882Z,36.47
2019-02-28T13:16:40.994Z,37.30
2019-02-28T13:19:09.729Z,35.63
2019-02-28T13:21:46.890Z,30.37
2019-02-28T13:24:14.624Z,24.83
2019-02-28T13:26:43.358Z,31.33
2019-02-28T13:29:12.154Z,32.43
2019-02-28T13:31:40.968Z,33.80
2019-02-28T13:34:09.798Z,33.27
2019-02-28T13:36:38.541Z,22.33
2019-02-28T13:39:08.905Z,26.40
2019-02-28T13:41:37.615Z,32.90
2019-02-28T13:44:06.405Z,35.30
2019-02-28T13:46:35.157Z,44.20
2019-02-28T13:49:03.867Z,39.43
2019-02-28T13:51:36.649Z,34.40
2019-02-28T13:54:07.670Z,36.00
2019-02-28T13:56:36.399Z,40.33
2019-02-28T13:59:05.169Z,44.17
2019-02-28T14:01:35.310Z,42.13
2019-02-28T14:04:04.022Z,36.53
2019-02-28T14:06:33.682Z,32.33
2019-02-28T14:09:02.598Z,34.53
2019-02-28T14:11:31.339Z,40.13
2019-02-28T14:14:00.106Z,43.50
2019-02-28T14:16:28.833Z,38.80
2019-02-28T14:19:00.370Z,34.47
2019-02-28T14:21:29.085Z,35.50
2019-02-28T14:23:59.140Z,39.33
2019-02-28T14:26:31.041Z,38.73
2019-02-28T14:28:59.578Z,33.67
2019-02-28T14:31:29.581Z,39.87
2019-02-28T14:33:58.742Z,33.33
2019-02-28T14:36:27.494Z,34.50
2019-02-28T14:38:56.228Z,28.80
2019-02-28T14:41:28.422Z,33.00
2019-02-28T14:43:56.060Z,36.50
2019-02-28T14:46:25.714Z,31.13
2019-02-28T14:48:54.432Z,28.80
2019-02-28T14:51:25.495Z,24.37
2019-02-28T14:53:53.645Z,29.33
2019-02-28T14:56:22.425Z,24.27
2019-02-28T14:58:54.475Z,24.00
2019-02-28T15:01:21.696Z,23.33
2019-02-28T15:03:50.394Z,25.17
2019-02-28T15:06:19.206Z,33.27
2019-02-28T15:08:51.054Z,27.00
2019-02-28T15:11:19.181Z,28.87
2019-02-28T15:13:47.915Z,29.90
2019-02-28T15:16:16.630Z,21.00
2019-02-28T15:18:47.716Z,26.67
2019-02-28T15:21:15.803Z,32.13
2019-02-28T15:23:44.527Z,33.43
2019-02-28T15:26:13.227Z,32.87
2019-02-28T15:28:41.963Z,28.60
2019-02-28T15:31:10.733Z,35.23
2019-02-28T15:33:39.533Z,30.20
2019-02-28T15:36:08.463Z,24.80
2019-02-28T15:38:37.248Z,26.57
2019-02-28T15:41:06.055Z,26.37
2019-02-28T15:43:34.833Z,38.20
2019-02-28T15:46:03.548Z,31.77
2019-02-28T15:48:34.581Z,30.03
2019-02-28T15:51:03.553Z,36.37
2019-02-28T15:53:34.258Z,29.80
2019-02-28T15:56:12.711Z,39.40
2019-02-28T15:58:33.430Z,31.87
2019-02-28T16:01:02.208Z,35.60
2019-02-28T16:03:31.014Z,34.70
2019-02-28T16:05:59.794Z,40.37
2019-02-28T16:08:28.695Z,38.83
2019-02-28T16:10:57.502Z,33.60
2019-02-28T16:13:26.610Z,47.87
2019-02-28T16:15:56.862Z,37.40
2019-02-28T16:18:25.626Z,31.73
2019-02-28T16:20:54.350Z,33.03
2019-02-28T16:23:23.532Z,34.80
2019-02-28T16:25:53.666Z,36.37
2019-02-28T16:28:22.366Z,36.90
2019-02-28T16:30:51.130Z,37.83
2019-02-28T16:33:20.898Z,36.10
2019-02-28T16:35:51.379Z,29.90
2019-02-28T16:38:20.246Z,43.53
2019-02-28T16:40:49.045Z,32.17
2019-02-28T16:43:20.852Z,40.10
2019-02-28T16:45:49.935Z,39.07
2019-02-28T16:48:18.778Z,41.33
2019-02-28T16:50:50.621Z,33.37
2019-02-28T16:53:18.219Z,38.53
2019-02-28T16:55:46.944Z,38.33
2019-02-28T16:58:18.670Z,40.60
2019-02-28T17:00:47.060Z,30.97
2019-02-28T17:03:15.986Z,37.50
2019-02-28T17:05:44.840Z,37.37
2019-02-28T17:08:15.563Z,32.08
2019-02-28T17:10:44.914Z,34.55
2019-02-28T17:13:22.365Z,42.70
2019-02-28T17:16:02.622Z,31.05
2019-02-28T17:18:32.374Z,41.10
2019-02-28T17:21:01.111Z,36.20
2019-02-28T17:23:29.842Z,27.15
2019-02-28T17:25:58.641Z,23.83
2019-02-28T17:28:49.946Z,25.73
2019-02-28T17:31:44.448Z,25.67
2019-02-28T17:34:17.908Z,22.30
2019-02-28T17:36:48.618Z,26.60
2019-02-28T17:39:18.287Z,24.80
2019-02-28T17:41:47.050Z,19.80
2019-02-28T17:45:03.160Z,18.43
2019-02-28T17:48:04.768Z,22.53
2019-02-28T17:51:04.343Z,21.30
2019-02-28T17:53:55.870Z,16.07
2019-02-28T17:57:24.386Z,21.70
2019-02-28T18:00:30.434Z,17.70
2019-02-28T18:03:25.519Z,19.93
2019-02-28T18:06:43.744Z,31.67
2019-02-28T18:09:51.712Z,29.37
2019-02-28T18:12:55.813Z,29.43
2019-02-28T18:15:45.981Z,25.63
2019-02-28T18:18:54.134Z,36.83
2019-02-28T18:21:51.110Z,27.80
2019-02-28T18:25:05.510Z,34.73
2019-02-28T18:28:15.023Z,26.97
2019-02-28T18:31:19.076Z,30.83
2019-02-28T18:34:01.649Z,32.43
2019-02-28T18:36:31.479Z,32.60
2019-02-28T18:39:00.194Z,31.70
2019-02-28T18:41:28.904Z,34.47
2019-02-28T18:44:00.079Z,34.77
2019-02-28T18:46:29.545Z,33.45
2019-02-28T18:48:58.534Z,32.10
2019-02-28T18:51:28.114Z,33.43
2019-02-28T18:53:56.830Z,38.45
2019-02-28T18:56:25.560Z,41.18
2019-02-28T18:58:54.311Z,42.10
2019-02-28T19:01:25.540Z,42.67
2019-02-28T19:03:54.969Z,39.37
2019-02-28T19:06:23.790Z,39.27
2019-02-28T19:08:52.602Z,52.13
2019-02-28T19:11:21.331Z,34.50
2019-02-28T19:13:50.126Z,42.67
2019-02-28T19:16:18.931Z,45.50
2019-02-28T19:18:48.018Z,45.87
2019-02-28T19:21:16.983Z,44.80
2019-02-28T19:23:46.487Z,46.97
2019-02-28T19:26:17.519Z,52.90
2019-02-28T19:28:48.367Z,45.90
2019-02-28T19:31:17.202Z,45.70
2019-02-28T19:33:46.128Z,49.80
2019-02-28T19:36:19.133Z,53.37
2019-02-28T19:38:47.905Z,45.90
2019-02-28T19:41:16.786Z,56.60
2019-02-28T19:43:45.618Z,54.95
2019-02-28T19:46:14.710Z,47.27
2019-02-28T19:48:43.852Z,47.70
2019-02-28T19:51:12.599Z,50.45
2019-02-28T19:53:41.425Z,46.25
2019-02-28T19:56:10.262Z,48.90
2019-02-28T19:58:39.046Z,43.52
2019-02-28T20:01:07.783Z,44.42
2019-02-28T20:03:36.585Z,54.77
2019-02-28T20:06:05.318Z,43.30
2019-02-28T20:08:34.026Z,52.00
2019-02-28T20:11:02.758Z,55.85
2019-02-28T20:13:31.529Z,43.58
2019-02-28T20:16:01.058Z,47.60
2019-02-28T20:18:29.795Z,50.15
2019-02-28T20:20:59.337Z,54.88
2019-02-28T20:23:28.057Z,51.55
2019-02-28T20:25:56.848Z,52.95
2019-02-28T20:28:25.734Z,56.00
2019-02-28T20:30:54.530Z,37.50
2019-02-28T20:33:23.250Z,46.28
2019-02-28T20:35:52.018Z,61.77
2019-02-28T20:38:20.730Z,38.60
2019-02-28T20:40:49.606Z,44.83
2019-02-28T20:43:18.350Z,45.73
2019-02-28T20:45:47.052Z,41.30
2019-02-28T20:48:16.238Z,38.28
2019-02-28T20:50:46.272Z,38.95
2019-02-28T20:53:15.197Z,43.20
2019-02-28T20:55:43.899Z,50.65
2019-02-28T20:58:12.657Z,35.40
2019-02-28T21:00:41.478Z,54.20
2019-02-28T21:03:10.202Z,37.00
2019-02-28T21:05:38.925Z,48.92
2019-02-28T21:08:07.770Z,48.83
2019-02-28T21:10:36.554Z,42.33
2019-02-28T21:13:05.266Z,44.83
2019-02-28T21:15:34.078Z,43.52
2019-02-28T21:18:02.943Z,37.83
2019-02-28T21:20:31.651Z,48.87
2019-02-28T21:23:00.398Z,39.03
2019-02-28T21:25:29.139Z,41.55
2019-02-28T21:27:58.338Z,44.45
2019-02-28T21:30:46.948Z,43.55
2019-02-28T21:33:16.703Z,49.55
2019-02-28T21:35:45.457Z,42.00
2019-02-28T21:38:14.330Z,44.75
2019-02-28T21:40:43.050Z,46.08
2019-02-28T21:43:11.819Z,42.45
2019-02-28T21:45:40.549Z,37.38
2019-02-28T21:48:09.263Z,38.67
2019-02-28T21:50:37.967Z,34.73
2019-02-28T21:53:06.711Z,40.73
2019-02-28T21:55:35.447Z,42.53
2019-02-28T21:58:04.199Z,42.17
2019-02-28T22:00:32.958Z,54.23
2019-02-28T22:03:01.679Z,43.95
2019-02-28T22:05:30.425Z,52.33
2019-02-28T22:07:59.142Z,55.90
2019-02-28T22:10:27.873Z,46.60
2019-02-28T22:12:56.610Z,53.60
2019-02-28T22:15:25.369Z,42.40
2019-02-28T22:17:54.136Z,48.08
2019-02-28T22:20:22.897Z,55.05
2019-02-28T22:22:51.614Z,51.98
2019-02-28T22:25:20.311Z,52.27
2019-02-28T22:27:49.061Z,55.73
2019-02-28T22:30:50.207Z,45.08
2019-02-28T22:33:32.038Z,50.88
2019-02-28T22:36:00.990Z,49.35
2019-02-28T22:38:29.714Z,61.85
2019-02-28T22:40:58.464Z,51.25
2019-02-28T22:43:27.187Z,52.73
2019-02-28T22:45:55.891Z,52.67
2019-02-28T22:48:24.726Z,57.88
2019-02-28T22:50:53.514Z,60.75
2019-02-28T22:53:22.234Z,76.90
2019-02-28T22:55:50.954Z,65.57
2019-02-28T22:58:19.691Z,76.17
2019-02-28T23:01:07.875Z,102.72
2019-02-28T23:03:36.588Z,137.52
2019-02-28T23:06:05.676Z,147.82
2019-02-28T23:08:34.765Z,164.43
2019-02-28T23:11:03.539Z,170.97
2019-02-28T23:13:32.249Z,180.95
2019-02-28T23:16:01.532Z,195.53
2019-02-28T23:18:30.366Z,209.72
2019-02-28T23:20:59.075Z,208.02
2019-02-28T23:23:28.650Z,240.70
2019-02-28T23:26:07.282Z,257.77
2019-02-28T23:28:38.411Z,271.40
2019-02-28T23:31:53.550Z,277.55
2019-02-28T23:34:43.332Z,274.32
2019-02-28T23:37:12.147Z,288.87
2019-02-28T23:39:40.867Z,297.15
2019-02-28T23:42:09.626Z,333.90
2019-02-28T23:44:38.767Z,363.62
2019-02-28T23:47:07.498Z,399.92
2019-02-28T23:49:37.102Z,442.60
2019-02-28T23:52:05.878Z,470.68
2019-02-28T23:54:34.598Z,577.00
2019-02-28T23:57:03.370Z,570.27
2019-02-28T23:59:32.150Z,590.73
